sensor_id;sensor_type;location;lat;lon;timestamp;P1;durP1;ratioP1;P2;durP2;ratioP2
59042;SDS011;44826;51.596;5.624;2022-07-18T00:00:22;5.00;;;2.80;;
59042;SDS011;44826;51.596;5.624;2022-07-18T00:02:48;4.85;;;2.55;;
59042;SDS011;44826;51.596;5.624;2022-07-18T00:05:13;6.95;;;2.78;;
59042;SDS011;44826;51.596;5.624;2022-07-18T00:07:39;6.70;;;2.63;;
59042;SDS011;44826;51.596;5.624;2022-07-18T00:10:04;5.75;;;2.75;;
59042;SDS011;44826;51.596;5.624;2022-07-18T00:12:30;4.88;;;2.80;;
59042;SDS011;44826;51.596;5.624;2022-07-18T00:14:55;5.97;;;2.70;;
59042;SDS011;44826;51.596;5.624;2022-07-18T00:17:21;4.55;;;2.67;;
59042;SDS011;44826;51.596;5.624;2022-07-18T00:19:46;4.50;;;2.90;;
59042;SDS011;44826;51.596;5.624;2022-07-18T00:22:11;6.30;;;3.08;;
59042;SDS011;44826;51.596;5.624;2022-07-18T00:24:36;6.72;;;3.40;;
59042;SDS011;44826;51.596;5.624;2022-07-18T00:27:05;6.90;;;3.20;;
59042;SDS011;44826;51.596;5.624;2022-07-18T00:29:32;6.68;;;3.10;;
59042;SDS011;44826;51.596;5.624;2022-07-18T00:32:00;5.85;;;3.28;;
59042;SDS011;44826;51.596;5.624;2022-07-18T00:34:26;4.60;;;2.60;;
59042;SDS011;44826;51.596;5.624;2022-07-18T00:36:51;6.03;;;2.95;;
59042;SDS011;44826;51.596;5.624;2022-07-18T00:39:16;4.95;;;2.80;;
59042;SDS011;44826;51.596;5.624;2022-07-18T00:41:44;6.28;;;2.85;;
59042;SDS011;44826;51.596;5.624;2022-07-18T00:44:15;5.28;;;3.10;;
59042;SDS011;44826;51.596;5.624;2022-07-18T00:46:42;5.68;;;2.88;;
59042;SDS011;44826;51.596;5.624;2022-07-18T00:49:07;4.57;;;2.90;;
59042;SDS011;44826;51.596;5.624;2022-07-18T00:51:32;5.53;;;3.15;;
59042;SDS011;44826;51.596;5.624;2022-07-18T00:54:01;4.60;;;3.17;;
59042;SDS011;44826;51.596;5.624;2022-07-18T00:56:28;5.13;;;2.83;;
59042;SDS011;44826;51.596;5.624;2022-07-18T00:58:53;5.65;;;3.13;;
59042;SDS011;44826;51.596;5.624;2022-07-18T01:01:18;5.55;;;3.05;;
59042;SDS011;44826;51.596;5.624;2022-07-18T01:04:02;5.68;;;2.92;;
59042;SDS011;44826;51.596;5.624;2022-07-18T01:06:28;5.65;;;2.95;;
59042;SDS011;44826;51.596;5.624;2022-07-18T01:08:53;5.95;;;2.90;;
59042;SDS011;44826;51.596;5.624;2022-07-18T01:11:19;5.45;;;3.25;;
59042;SDS011;44826;51.596;5.624;2022-07-18T01:13:46;6.05;;;2.67;;
59042;SDS011;44826;51.596;5.624;2022-07-18T01:16:13;3.50;;;2.65;;
59042;SDS011;44826;51.596;5.624;2022-07-18T01:18:43;6.03;;;3.13;;
59042;SDS011;44826;51.596;5.624;2022-07-18T01:21:13;4.88;;;3.13;;
59042;SDS011;44826;51.596;5.624;2022-07-18T01:23:39;5.43;;;2.80;;
59042;SDS011;44826;51.596;5.624;2022-07-18T01:26:05;6.15;;;2.80;;
59042;SDS011;44826;51.596;5.624;2022-07-18T01:28:30;5.80;;;2.97;;
59042;SDS011;44826;51.596;5.624;2022-07-18T01:30:55;5.00;;;3.08;;
59042;SDS011;44826;51.596;5.624;2022-07-18T01:33:21;9.68;;;3.00;;
59042;SDS011;44826;51.596;5.624;2022-07-18T01:35:46;4.88;;;2.95;;
59042;SDS011;44826;51.596;5.624;2022-07-18T01:38:11;6.70;;;3.08;;
59042;SDS011;44826;51.596;5.624;2022-07-18T01:40:37;6.68;;;3.20;;
59042;SDS011;44826;51.596;5.624;2022-07-18T01:43:02;6.43;;;2.80;;
59042;SDS011;44826;51.596;5.624;2022-07-18T01:45:28;5.97;;;2.97;;
59042;SDS011;44826;51.596;5.624;2022-07-18T01:47:53;5.10;;;3.00;;
59042;SDS011;44826;51.596;5.624;2022-07-18T01:50:18;4.55;;;3.05;;
59042;SDS011;44826;51.596;5.624;2022-07-18T01:52:44;5.47;;;3.08;;
59042;SDS011;44826;51.596;5.624;2022-07-18T01:55:09;5.70;;;3.08;;
59042;SDS011;44826;51.596;5.624;2022-07-18T01:57:35;5.80;;;3.13;;
59042;SDS011;44826;51.596;5.624;2022-07-18T02:00:03;6.15;;;2.55;;
59042;SDS011;44826;51.596;5.624;2022-07-18T02:02:30;4.22;;;2.38;;
59042;SDS011;44826;51.596;5.624;2022-07-18T02:04:55;5.88;;;2.88;;
59042;SDS011;44826;51.596;5.624;2022-07-18T02:07:24;5.50;;;2.72;;
59042;SDS011;44826;51.596;5.624;2022-07-18T02:09:49;5.60;;;2.75;;
59042;SDS011;44826;51.596;5.624;2022-07-18T02:12:14;4.53;;;3.00;;
59042;SDS011;44826;51.596;5.624;2022-07-18T02:14:40;4.53;;;2.97;;
59042;SDS011;44826;51.596;5.624;2022-07-18T02:17:05;5.70;;;3.13;;
59042;SDS011;44826;51.596;5.624;2022-07-18T02:19:30;5.15;;;3.35;;
59042;SDS011;44826;51.596;5.624;2022-07-18T02:21:56;5.03;;;3.00;;
59042;SDS011;44826;51.596;5.624;2022-07-18T02:24:21;4.63;;;3.10;;
59042;SDS011;44826;51.596;5.624;2022-07-18T02:26:46;6.97;;;3.17;;
59042;SDS011;44826;51.596;5.624;2022-07-18T02:29:12;5.57;;;3.55;;
59042;SDS011;44826;51.596;5.624;2022-07-18T02:31:37;6.95;;;3.25;;
59042;SDS011;44826;51.596;5.624;2022-07-18T02:34:02;6.32;;;2.90;;
59042;SDS011;44826;51.596;5.624;2022-07-18T02:36:34;6.68;;;3.13;;
59042;SDS011;44826;51.596;5.624;2022-07-18T02:39:03;5.45;;;2.90;;
59042;SDS011;44826;51.596;5.624;2022-07-18T02:41:29;6.40;;;3.10;;
59042;SDS011;44826;51.596;5.624;2022-07-18T02:43:54;5.13;;;3.42;;
59042;SDS011;44826;51.596;5.624;2022-07-18T02:46:20;5.25;;;3.00;;
59042;SDS011;44826;51.596;5.624;2022-07-18T02:48:45;5.00;;;3.20;;
59042;SDS011;44826;51.596;5.624;2022-07-18T02:51:10;4.57;;;2.90;;
59042;SDS011;44826;51.596;5.624;2022-07-18T02:53:35;5.03;;;3.15;;
59042;SDS011;44826;51.596;5.624;2022-07-18T02:56:01;6.47;;;3.70;;
59042;SDS011;44826;51.596;5.624;2022-07-18T02:58:26;7.22;;;3.50;;
59042;SDS011;44826;51.596;5.624;2022-07-18T03:00:51;6.75;;;3.50;;
59042;SDS011;44826;51.596;5.624;2022-07-18T03:03:17;5.07;;;3.30;;
59042;SDS011;44826;51.596;5.624;2022-07-18T03:05:42;6.30;;;3.55;;
59042;SDS011;44826;51.596;5.624;2022-07-18T03:08:07;8.52;;;3.38;;
59042;SDS011;44826;51.596;5.624;2022-07-18T03:10:32;7.05;;;3.22;;
59042;SDS011;44826;51.596;5.624;2022-07-18T03:12:58;5.30;;;3.08;;
59042;SDS011;44826;51.596;5.624;2022-07-18T03:15:23;5.03;;;2.92;;
59042;SDS011;44826;51.596;5.624;2022-07-18T03:17:48;5.35;;;3.22;;
59042;SDS011;44826;51.596;5.624;2022-07-18T03:20:13;4.72;;;2.97;;
59042;SDS011;44826;51.596;5.624;2022-07-18T03:22:39;4.30;;;2.95;;
59042;SDS011;44826;51.596;5.624;2022-07-18T03:25:04;6.60;;;2.80;;
59042;SDS011;44826;51.596;5.624;2022-07-18T03:27:30;5.18;;;2.97;;
59042;SDS011;44826;51.596;5.624;2022-07-18T03:29:55;4.60;;;2.83;;
59042;SDS011;44826;51.596;5.624;2022-07-18T03:32:20;5.72;;;3.40;;
59042;SDS011;44826;51.596;5.624;2022-07-18T03:34:45;6.25;;;2.80;;
59042;SDS011;44826;51.596;5.624;2022-07-18T03:37:11;6.00;;;3.35;;
59042;SDS011;44826;51.596;5.624;2022-07-18T03:39:36;6.55;;;3.22;;
59042;SDS011;44826;51.596;5.624;2022-07-18T03:42:01;5.22;;;2.97;;
59042;SDS011;44826;51.596;5.624;2022-07-18T03:44:27;4.30;;;3.10;;
59042;SDS011;44826;51.596;5.624;2022-07-18T03:46:52;5.65;;;2.85;;
59042;SDS011;44826;51.596;5.624;2022-07-18T03:49:18;5.65;;;3.20;;
59042;SDS011;44826;51.596;5.624;2022-07-18T03:51:44;5.32;;;3.03;;
59042;SDS011;44826;51.596;5.624;2022-07-18T03:54:09;5.25;;;3.25;;
59042;SDS011;44826;51.596;5.624;2022-07-18T03:56:35;6.35;;;3.20;;
59042;SDS011;44826;51.596;5.624;2022-07-18T03:59:00;5.70;;;3.30;;
59042;SDS011;44826;51.596;5.624;2022-07-18T04:01:26;4.97;;;3.20;;
59042;SDS011;44826;51.596;5.624;2022-07-18T04:03:51;5.20;;;3.20;;
59042;SDS011;44826;51.596;5.624;2022-07-18T04:06:16;6.28;;;3.38;;
59042;SDS011;44826;51.596;5.624;2022-07-18T04:08:41;19.92;;;3.85;;
59042;SDS011;44826;51.596;5.624;2022-07-18T04:11:07;17.92;;;3.35;;
59042;SDS011;44826;51.596;5.624;2022-07-18T04:13:32;10.98;;;3.42;;
59042;SDS011;44826;51.596;5.624;2022-07-18T04:15:57;5.15;;;3.55;;
59042;SDS011;44826;51.596;5.624;2022-07-18T04:18:23;5.38;;;3.60;;
59042;SDS011;44826;51.596;5.624;2022-07-18T04:20:48;10.20;;;3.20;;
59042;SDS011;44826;51.596;5.624;2022-07-18T04:23:13;8.82;;;3.60;;
59042;SDS011;44826;51.596;5.624;2022-07-18T04:25:39;5.45;;;3.22;;
59042;SDS011;44826;51.596;5.624;2022-07-18T04:28:07;5.65;;;3.58;;
59042;SDS011;44826;51.596;5.624;2022-07-18T04:30:35;6.88;;;3.50;;
59042;SDS011;44826;51.596;5.624;2022-07-18T04:33:04;7.35;;;4.03;;
59042;SDS011;44826;51.596;5.624;2022-07-18T04:35:31;8.70;;;4.28;;
59042;SDS011;44826;51.596;5.624;2022-07-18T04:37:57;7.88;;;3.63;;
59042;SDS011;44826;51.596;5.624;2022-07-18T04:40:23;5.53;;;3.92;;
59042;SDS011;44826;51.596;5.624;2022-07-18T04:42:48;7.50;;;3.38;;
59042;SDS011;44826;51.596;5.624;2022-07-18T04:45:14;7.35;;;3.70;;
59042;SDS011;44826;51.596;5.624;2022-07-18T04:47:40;5.82;;;3.28;;
59042;SDS011;44826;51.596;5.624;2022-07-18T04:50:06;6.38;;;3.28;;
59042;SDS011;44826;51.596;5.624;2022-07-18T04:52:36;7.90;;;3.70;;
59042;SDS011;44826;51.596;5.624;2022-07-18T04:55:02;5.38;;;3.42;;
59042;SDS011;44826;51.596;5.624;2022-07-18T04:57:28;5.43;;;3.40;;
59042;SDS011;44826;51.596;5.624;2022-07-18T04:59:53;5.68;;;3.35;;
59042;SDS011;44826;51.596;5.624;2022-07-18T05:02:18;6.05;;;3.47;;
59042;SDS011;44826;51.596;5.624;2022-07-18T05:04:44;5.63;;;3.33;;
59042;SDS011;44826;51.596;5.624;2022-07-18T05:07:09;5.07;;;3.50;;
59042;SDS011;44826;51.596;5.624;2022-07-18T05:09:34;6.57;;;3.70;;
59042;SDS011;44826;51.596;5.624;2022-07-18T05:11:59;5.45;;;3.33;;
59042;SDS011;44826;51.596;5.624;2022-07-18T05:14:25;6.30;;;3.70;;
59042;SDS011;44826;51.596;5.624;2022-07-18T05:16:50;6.25;;;3.90;;
59042;SDS011;44826;51.596;5.624;2022-07-18T05:19:15;5.57;;;3.65;;
59042;SDS011;44826;51.596;5.624;2022-07-18T05:21:41;7.88;;;3.75;;
59042;SDS011;44826;51.596;5.624;2022-07-18T05:24:08;5.70;;;3.58;;
59042;SDS011;44826;51.596;5.624;2022-07-18T05:26:33;7.50;;;3.78;;
59042;SDS011;44826;51.596;5.624;2022-07-18T05:28:58;8.15;;;3.80;;
59042;SDS011;44826;51.596;5.624;2022-07-18T05:31:24;6.05;;;3.67;;
59042;SDS011;44826;51.596;5.624;2022-07-18T05:33:49;7.97;;;4.05;;
59042;SDS011;44826;51.596;5.624;2022-07-18T05:36:14;9.38;;;3.85;;
59042;SDS011;44826;51.596;5.624;2022-07-18T05:38:40;5.75;;;3.72;;
59042;SDS011;44826;51.596;5.624;2022-07-18T05:41:05;8.02;;;3.90;;
59042;SDS011;44826;51.596;5.624;2022-07-18T05:43:31;5.88;;;3.25;;
59042;SDS011;44826;51.596;5.624;2022-07-18T05:45:56;6.35;;;3.85;;
59042;SDS011;44826;51.596;5.624;2022-07-18T05:48:21;6.50;;;3.55;;
59042;SDS011;44826;51.596;5.624;2022-07-18T05:50:46;6.93;;;3.28;;
59042;SDS011;44826;51.596;5.624;2022-07-18T05:53:12;7.60;;;3.33;;
59042;SDS011;44826;51.596;5.624;2022-07-18T05:55:37;6.28;;;3.38;;
59042;SDS011;44826;51.596;5.624;2022-07-18T05:58:03;5.00;;;3.28;;
59042;SDS011;44826;51.596;5.624;2022-07-18T06:00:28;5.38;;;3.50;;
59042;SDS011;44826;51.596;5.624;2022-07-18T06:02:54;10.63;;;3.67;;
59042;SDS011;44826;51.596;5.624;2022-07-18T06:05:20;5.90;;;3.50;;
59042;SDS011;44826;51.596;5.624;2022-07-18T06:07:45;8.13;;;3.67;;
59042;SDS011;44826;51.596;5.624;2022-07-18T06:10:10;9.25;;;3.35;;
59042;SDS011;44826;51.596;5.624;2022-07-18T06:12:36;6.78;;;3.60;;
59042;SDS011;44826;51.596;5.624;2022-07-18T06:15:02;6.03;;;3.47;;
59042;SDS011;44826;51.596;5.624;2022-07-18T06:17:28;5.97;;;3.22;;
59042;SDS011;44826;51.596;5.624;2022-07-18T06:19:54;6.43;;;3.70;;
59042;SDS011;44826;51.596;5.624;2022-07-18T06:22:20;6.43;;;3.88;;
59042;SDS011;44826;51.596;5.624;2022-07-18T06:24:47;8.02;;;3.60;;
59042;SDS011;44826;51.596;5.624;2022-07-18T06:27:13;6.28;;;3.63;;
59042;SDS011;44826;51.596;5.624;2022-07-18T06:29:38;6.28;;;3.55;;
59042;SDS011;44826;51.596;5.624;2022-07-18T06:32:04;7.07;;;4.00;;
59042;SDS011;44826;51.596;5.624;2022-07-18T06:34:29;6.07;;;3.95;;
59042;SDS011;44826;51.596;5.624;2022-07-18T06:36:55;7.07;;;3.95;;
59042;SDS011;44826;51.596;5.624;2022-07-18T06:39:20;8.95;;;3.97;;
59042;SDS011;44826;51.596;5.624;2022-07-18T06:41:45;12.70;;;4.13;;
59042;SDS011;44826;51.596;5.624;2022-07-18T06:44:11;6.97;;;3.95;;
59042;SDS011;44826;51.596;5.624;2022-07-18T06:46:36;7.35;;;3.85;;
59042;SDS011;44826;51.596;5.624;2022-07-18T06:49:02;6.10;;;3.72;;
59042;SDS011;44826;51.596;5.624;2022-07-18T06:51:28;6.93;;;4.40;;
59042;SDS011;44826;51.596;5.624;2022-07-18T06:53:54;8.25;;;4.05;;
59042;SDS011;44826;51.596;5.624;2022-07-18T06:56:19;9.18;;;3.92;;
59042;SDS011;44826;51.596;5.624;2022-07-18T06:58:45;7.80;;;4.28;;
59042;SDS011;44826;51.596;5.624;2022-07-18T07:01:14;9.23;;;4.05;;
59042;SDS011;44826;51.596;5.624;2022-07-18T07:03:39;8.32;;;4.40;;
59042;SDS011;44826;51.596;5.624;2022-07-18T07:06:05;8.07;;;3.83;;
59042;SDS011;44826;51.596;5.624;2022-07-18T07:08:30;10.30;;;3.97;;
59042;SDS011;44826;51.596;5.624;2022-07-18T07:10:56;6.72;;;4.10;;
59042;SDS011;44826;51.596;5.624;2022-07-18T07:13:21;6.95;;;3.92;;
59042;SDS011;44826;51.596;5.624;2022-07-18T07:15:46;6.15;;;4.10;;
59042;SDS011;44826;51.596;5.624;2022-07-18T07:18:11;7.30;;;4.18;;
59042;SDS011;44826;51.596;5.624;2022-07-18T07:20:37;8.23;;;4.43;;
59042;SDS011;44826;51.596;5.624;2022-07-18T07:23:03;7.53;;;4.03;;
59042;SDS011;44826;51.596;5.624;2022-07-18T07:25:32;6.22;;;3.80;;
59042;SDS011;44826;51.596;5.624;2022-07-18T07:27:57;6.65;;;4.30;;
59042;SDS011;44826;51.596;5.624;2022-07-18T07:30:23;7.18;;;4.43;;
59042;SDS011;44826;51.596;5.624;2022-07-18T07:32:48;7.18;;;4.18;;
59042;SDS011;44826;51.596;5.624;2022-07-18T07:35:15;9.50;;;4.30;;
59042;SDS011;44826;51.596;5.624;2022-07-18T07:37:42;11.93;;;4.65;;
59042;SDS011;44826;51.596;5.624;2022-07-18T07:40:09;11.82;;;4.47;;
59042;SDS011;44826;51.596;5.624;2022-07-18T07:42:35;8.80;;;4.22;;
59042;SDS011;44826;51.596;5.624;2022-07-18T07:45:01;9.77;;;4.30;;
59042;SDS011;44826;51.596;5.624;2022-07-18T07:47:26;8.32;;;4.10;;
59042;SDS011;44826;51.596;5.624;2022-07-18T07:49:53;10.25;;;3.60;;
59042;SDS011;44826;51.596;5.624;2022-07-18T07:52:19;8.98;;;4.03;;
59042;SDS011;44826;51.596;5.624;2022-07-18T07:54:45;6.85;;;3.80;;
59042;SDS011;44826;51.596;5.624;2022-07-18T07:57:11;8.45;;;3.97;;
59042;SDS011;44826;51.596;5.624;2022-07-18T07:59:36;9.05;;;4.50;;
59042;SDS011;44826;51.596;5.624;2022-07-18T08:02:02;6.05;;;4.05;;
59042;SDS011;44826;51.596;5.624;2022-07-18T08:04:27;7.03;;;3.60;;
59042;SDS011;44826;51.596;5.624;2022-07-18T08:06:53;6.10;;;3.72;;
59042;SDS011;44826;51.596;5.624;2022-07-18T08:09:18;7.32;;;3.55;;
59042;SDS011;44826;51.596;5.624;2022-07-18T08:11:43;6.72;;;3.50;;
59042;SDS011;44826;51.596;5.624;2022-07-18T08:14:09;7.15;;;3.53;;
59042;SDS011;44826;51.596;5.624;2022-07-18T08:16:34;8.63;;;3.20;;
59042;SDS011;44826;51.596;5.624;2022-07-18T08:18:59;5.63;;;3.05;;
59042;SDS011;44826;51.596;5.624;2022-07-18T08:21:25;8.30;;;3.20;;
59042;SDS011;44826;51.596;5.624;2022-07-18T08:23:50;4.88;;;2.92;;
59042;SDS011;44826;51.596;5.624;2022-07-18T08:26:16;3.60;;;2.42;;
59042;SDS011;44826;51.596;5.624;2022-07-18T08:28:41;4.43;;;2.45;;
59042;SDS011;44826;51.596;5.624;2022-07-18T08:31:06;4.65;;;2.38;;
59042;SDS011;44826;51.596;5.624;2022-07-18T08:33:32;5.07;;;2.58;;
59042;SDS011;44826;51.596;5.624;2022-07-18T08:35:57;3.90;;;2.17;;
59042;SDS011;44826;51.596;5.624;2022-07-18T08:38:22;5.53;;;1.80;;
59042;SDS011;44826;51.596;5.624;2022-07-18T08:40:48;3.25;;;1.83;;
59042;SDS011;44826;51.596;5.624;2022-07-18T08:43:15;4.90;;;1.70;;
59042;SDS011;44826;51.596;5.624;2022-07-18T08:45:41;2.28;;;1.70;;
59042;SDS011;44826;51.596;5.624;2022-07-18T08:48:08;3.47;;;1.70;;
59042;SDS011;44826;51.596;5.624;2022-07-18T08:50:34;4.35;;;1.63;;
59042;SDS011;44826;51.596;5.624;2022-07-18T08:52:59;3.50;;;1.52;;
59042;SDS011;44826;51.596;5.624;2022-07-18T08:55:26;1.73;;;1.20;;
59042;SDS011;44826;51.596;5.624;2022-07-18T08:57:51;3.05;;;1.40;;
59042;SDS011;44826;51.596;5.624;2022-07-18T09:00:17;4.30;;;1.65;;
59042;SDS011;44826;51.596;5.624;2022-07-18T09:02:43;3.85;;;1.52;;
59042;SDS011;44826;51.596;5.624;2022-07-18T09:05:17;3.05;;;1.17;;
59042;SDS011;44826;51.596;5.624;2022-07-18T09:07:43;4.43;;;1.33;;
59042;SDS011;44826;51.596;5.624;2022-07-18T09:10:09;2.70;;;1.40;;
59042;SDS011;44826;51.596;5.624;2022-07-18T09:12:34;2.30;;;1.38;;
59042;SDS011;44826;51.596;5.624;2022-07-18T09:15:06;2.67;;;1.20;;
59042;SDS011;44826;51.596;5.624;2022-07-18T09:17:33;4.75;;;1.55;;
59042;SDS011;44826;51.596;5.624;2022-07-18T09:20:05;3.13;;;1.40;;
59042;SDS011;44826;51.596;5.624;2022-07-18T09:22:34;3.90;;;1.40;;
59042;SDS011;44826;51.596;5.624;2022-07-18T09:27:33;3.42;;;1.40;;
59042;SDS011;44826;51.596;5.624;2022-07-18T09:30:14;1.70;;;1.30;;
59042;SDS011;44826;51.596;5.624;2022-07-18T09:32:43;5.00;;;1.65;;
59042;SDS011;44826;51.596;5.624;2022-07-18T09:35:12;3.70;;;1.42;;
59042;SDS011;44826;51.596;5.624;2022-07-18T09:37:51;2.97;;;1.60;;
59042;SDS011;44826;51.596;5.624;2022-07-18T09:40:19;3.20;;;1.60;;
59042;SDS011;44826;51.596;5.624;2022-07-18T09:42:48;11.13;;;1.70;;
59042;SDS011;44826;51.596;5.624;2022-07-18T09:45:15;3.08;;;1.33;;
59042;SDS011;44826;51.596;5.624;2022-07-18T09:47:51;4.57;;;1.60;;
59042;SDS011;44826;51.596;5.624;2022-07-18T09:50:28;4.30;;;1.30;;
59042;SDS011;44826;51.596;5.624;2022-07-18T09:53:03;3.05;;;1.42;;
59042;SDS011;44826;51.596;5.624;2022-07-18T09:55:28;3.10;;;1.30;;
59042;SDS011;44826;51.596;5.624;2022-07-18T09:58:04;3.88;;;1.20;;
59042;SDS011;44826;51.596;5.624;2022-07-18T10:00:33;3.38;;;1.10;;
59042;SDS011;44826;51.596;5.624;2022-07-18T10:05:29;3.22;;;1.33;;
59042;SDS011;44826;51.596;5.624;2022-07-18T10:07:56;3.65;;;1.33;;
59042;SDS011;44826;51.596;5.624;2022-07-18T10:10:23;3.65;;;1.33;;
59042;SDS011;44826;51.596;5.624;2022-07-18T10:12:50;5.00;;;1.40;;
59042;SDS011;44826;51.596;5.624;2022-07-18T10:15:23;2.20;;;1.30;;
59042;SDS011;44826;51.596;5.624;2022-07-18T10:17:51;3.50;;;1.33;;
59042;SDS011;44826;51.596;5.624;2022-07-18T10:20:16;3.35;;;1.58;;
59042;SDS011;44826;51.596;5.624;2022-07-18T10:22:43;3.38;;;1.40;;
59042;SDS011;44826;51.596;5.624;2022-07-18T10:25:11;2.78;;;1.48;;
59042;SDS011;44826;51.596;5.624;2022-07-18T10:27:50;2.38;;;1.40;;
59042;SDS011;44826;51.596;5.624;2022-07-18T10:30:16;6.03;;;1.60;;
59042;SDS011;44826;51.596;5.624;2022-07-18T10:32:44;4.75;;;1.60;;
59042;SDS011;44826;51.596;5.624;2022-07-18T10:35:10;1.90;;;1.30;;
59042;SDS011;44826;51.596;5.624;2022-07-18T10:37:40;2.65;;;1.30;;
59042;SDS011;44826;51.596;5.624;2022-07-18T10:45:54;2.22;;;1.30;;
59042;SDS011;44826;51.596;5.624;2022-07-18T10:51:06;2.63;;;1.38;;
59042;SDS011;44826;51.596;5.624;2022-07-18T10:56:20;3.63;;;1.40;;
59042;SDS011;44826;51.596;5.624;2022-07-18T10:58:45;6.03;;;1.50;;
59042;SDS011;44826;51.596;5.624;2022-07-18T11:01:17;2.17;;;1.20;;
59042;SDS011;44826;51.596;5.624;2022-07-18T11:03:43;3.65;;;1.33;;
59042;SDS011;44826;51.596;5.624;2022-07-18T11:06:08;2.45;;;1.30;;
59042;SDS011;44826;51.596;5.624;2022-07-18T11:08:34;3.33;;;1.60;;
59042;SDS011;44826;51.596;5.624;2022-07-18T11:11:07;5.85;;;1.30;;
59042;SDS011;44826;51.596;5.624;2022-07-18T11:13:34;3.58;;;1.42;;
59042;SDS011;44826;51.596;5.624;2022-07-18T11:16:21;4.38;;;1.50;;
59042;SDS011;44826;51.596;5.624;2022-07-18T11:21:19;2.90;;;1.42;;
59042;SDS011;44826;51.596;5.624;2022-07-18T11:23:48;1.90;;;1.30;;
59042;SDS011;44826;51.596;5.624;2022-07-18T11:26:16;4.80;;;1.50;;
59042;SDS011;44826;51.596;5.624;2022-07-18T11:28:43;2.92;;;1.40;;
59042;SDS011;44826;51.596;5.624;2022-07-18T11:31:11;2.33;;;1.50;;
59042;SDS011;44826;51.596;5.624;2022-07-18T11:33:39;2.75;;;1.38;;
59042;SDS011;44826;51.596;5.624;2022-07-18T11:38:33;3.58;;;1.40;;
59042;SDS011;44826;51.596;5.624;2022-07-18T11:41:03;5.28;;;1.70;;
59042;SDS011;44826;51.596;5.624;2022-07-18T11:43:28;3.33;;;1.40;;
59042;SDS011;44826;51.596;5.624;2022-07-18T11:46:04;3.17;;;1.45;;
59042;SDS011;44826;51.596;5.624;2022-07-18T11:48:31;3.28;;;1.42;;
59042;SDS011;44826;51.596;5.624;2022-07-18T11:50:58;7.13;;;1.60;;
59042;SDS011;44826;51.596;5.624;2022-07-18T11:53:23;3.30;;;1.60;;
59042;SDS011;44826;51.596;5.624;2022-07-18T11:55:49;3.55;;;1.40;;
59042;SDS011;44826;51.596;5.624;2022-07-18T11:58:15;4.45;;;1.70;;
59042;SDS011;44826;51.596;5.624;2022-07-18T12:00:42;3.33;;;1.58;;
59042;SDS011;44826;51.596;5.624;2022-07-18T12:05:47;3.05;;;1.40;;
59042;SDS011;44826;51.596;5.624;2022-07-18T12:08:24;3.60;;;1.40;;
59042;SDS011;44826;51.596;5.624;2022-07-18T12:14:18;2.03;;;1.42;;
59042;SDS011;44826;51.596;5.624;2022-07-18T12:16:40;2.83;;;1.33;;
59042;SDS011;44826;51.596;5.624;2022-07-18T12:19:17;3.45;;;1.45;;
59042;SDS011;44826;51.596;5.624;2022-07-18T12:26:43;2.60;;;1.40;;
59042;SDS011;44826;51.596;5.624;2022-07-18T12:29:09;2.85;;;1.65;;
59042;SDS011;44826;51.596;5.624;2022-07-18T12:31:38;2.50;;;1.50;;
59042;SDS011;44826;51.596;5.624;2022-07-18T12:34:12;3.40;;;1.55;;
59042;SDS011;44826;51.596;5.624;2022-07-18T12:39:29;2.70;;;1.55;;
59042;SDS011;44826;51.596;5.624;2022-07-18T12:41:56;3.72;;;1.52;;
59042;SDS011;44826;51.596;5.624;2022-07-18T12:44:22;3.83;;;1.40;;
59042;SDS011;44826;51.596;5.624;2022-07-18T12:46:48;3.28;;;1.50;;
59042;SDS011;44826;51.596;5.624;2022-07-18T12:49:14;4.00;;;1.70;;
59042;SDS011;44826;51.596;5.624;2022-07-18T12:51:39;2.97;;;1.33;;
59042;SDS011;44826;51.596;5.624;2022-07-18T12:54:04;4.35;;;1.60;;
59042;SDS011;44826;51.596;5.624;2022-07-18T12:56:29;2.92;;;1.60;;
59042;SDS011;44826;51.596;5.624;2022-07-18T12:58:55;1.67;;;1.25;;
59042;SDS011;44826;51.596;5.624;2022-07-18T13:01:20;4.32;;;1.70;;
59042;SDS011;44826;51.596;5.624;2022-07-18T13:03:45;2.13;;;1.60;;
59042;SDS011;44826;51.596;5.624;2022-07-18T13:06:11;4.05;;;1.55;;
59042;SDS011;44826;51.596;5.624;2022-07-18T13:08:36;4.63;;;1.52;;
59042;SDS011;44826;51.596;5.624;2022-07-18T13:11:01;2.85;;;1.73;;
59042;SDS011;44826;51.596;5.624;2022-07-18T13:13:27;5.22;;;1.80;;
59042;SDS011;44826;51.596;5.624;2022-07-18T13:15:52;3.53;;;1.67;;
59042;SDS011;44826;51.596;5.624;2022-07-18T13:18:18;3.88;;;1.70;;
59042;SDS011;44826;51.596;5.624;2022-07-18T13:20:43;3.75;;;1.48;;
59042;SDS011;44826;51.596;5.624;2022-07-18T13:23:08;5.53;;;1.50;;
59042;SDS011;44826;51.596;5.624;2022-07-18T13:25:35;3.20;;;1.50;;
59042;SDS011;44826;51.596;5.624;2022-07-18T13:28:01;3.10;;;1.60;;
59042;SDS011;44826;51.596;5.624;2022-07-18T13:30:26;5.05;;;1.50;;
59042;SDS011;44826;51.596;5.624;2022-07-18T13:32:52;3.17;;;1.38;;
59042;SDS011;44826;51.596;5.624;2022-07-18T13:35:17;4.60;;;1.40;;
59042;SDS011;44826;51.596;5.624;2022-07-18T13:37:43;2.97;;;1.60;;
59042;SDS011;44826;51.596;5.624;2022-07-18T13:40:09;2.75;;;1.60;;
59042;SDS011;44826;51.596;5.624;2022-07-18T13:42:35;3.22;;;1.80;;
59042;SDS011;44826;51.596;5.624;2022-07-18T13:45:01;2.53;;;1.50;;
59042;SDS011;44826;51.596;5.624;2022-07-18T13:47:27;4.18;;;1.50;;
59042;SDS011;44826;51.596;5.624;2022-07-18T13:49:52;3.22;;;1.48;;
59042;SDS011;44826;51.596;5.624;2022-07-18T13:52:17;3.03;;;1.50;;
59042;SDS011;44826;51.596;5.624;2022-07-18T13:54:43;2.20;;;1.40;;
59042;SDS011;44826;51.596;5.624;2022-07-18T13:57:08;5.20;;;1.77;;
59042;SDS011;44826;51.596;5.624;2022-07-18T13:59:34;4.47;;;1.40;;
59042;SDS011;44826;51.596;5.624;2022-07-18T14:01:59;2.63;;;1.50;;
59042;SDS011;44826;51.596;5.624;2022-07-18T14:04:24;5.90;;;1.45;;
59042;SDS011;44826;51.596;5.624;2022-07-18T14:06:50;2.67;;;1.60;;
59042;SDS011;44826;51.596;5.624;2022-07-18T14:09:16;3.78;;;1.77;;
59042;SDS011;44826;51.596;5.624;2022-07-18T14:11:41;3.38;;;1.48;;
59042;SDS011;44826;51.596;5.624;2022-07-18T14:14:06;3.20;;;1.45;;
59042;SDS011;44826;51.596;5.624;2022-07-18T14:16:32;3.05;;;1.50;;
59042;SDS011;44826;51.596;5.624;2022-07-18T14:18:57;41.60;;;4.10;;
59042;SDS011;44826;51.596;5.624;2022-07-18T14:21:23;11.13;;;2.22;;
59042;SDS011;44826;51.596;5.624;2022-07-18T14:23:49;4.70;;;1.70;;
59042;SDS011;44826;51.596;5.624;2022-07-18T14:26:14;6.10;;;1.60;;
59042;SDS011;44826;51.596;5.624;2022-07-18T14:28:39;2.78;;;1.75;;
59042;SDS011;44826;51.596;5.624;2022-07-18T14:31:05;4.53;;;1.52;;
59042;SDS011;44826;51.596;5.624;2022-07-18T14:33:30;3.13;;;1.40;;
59042;SDS011;44826;51.596;5.624;2022-07-18T14:35:56;3.55;;;1.63;;
59042;SDS011;44826;51.596;5.624;2022-07-18T14:38:21;2.30;;;1.30;;
59042;SDS011;44826;51.596;5.624;2022-07-18T14:40:46;3.47;;;1.80;;
59042;SDS011;44826;51.596;5.624;2022-07-18T14:43:12;4.28;;;1.63;;
59042;SDS011;44826;51.596;5.624;2022-07-18T14:45:37;3.17;;;1.48;;
59042;SDS011;44826;51.596;5.624;2022-07-18T14:48:03;4.75;;;1.80;;
59042;SDS011;44826;51.596;5.624;2022-07-18T14:50:28;4.50;;;1.83;;
59042;SDS011;44826;51.596;5.624;2022-07-18T14:52:53;3.53;;;1.40;;
59042;SDS011;44826;51.596;5.624;2022-07-18T14:55:19;2.55;;;1.50;;
59042;SDS011;44826;51.596;5.624;2022-07-18T14:57:44;2.65;;;1.40;;
59042;SDS011;44826;51.596;5.624;2022-07-18T15:00:10;2.70;;;1.38;;
59042;SDS011;44826;51.596;5.624;2022-07-18T15:02:36;2.58;;;1.55;;
59042;SDS011;44826;51.596;5.624;2022-07-18T15:05:03;3.13;;;1.40;;
59042;SDS011;44826;51.596;5.624;2022-07-18T15:07:28;2.55;;;1.55;;
59042;SDS011;44826;51.596;5.624;2022-07-18T15:09:54;4.13;;;1.52;;
59042;SDS011;44826;51.596;5.624;2022-07-18T15:12:19;2.20;;;1.60;;
59042;SDS011;44826;51.596;5.624;2022-07-18T15:14:45;3.50;;;1.60;;
59042;SDS011;44826;51.596;5.624;2022-07-18T15:17:10;2.75;;;1.58;;